createdAt,value
2022-11-15T00:09:26.363Z,64.09
2022-11-15T00:24:27.263Z,64.58
2022-11-15T00:39:27.847Z,64.37
2022-11-15T00:54:28.487Z,63.88
2022-11-15T01:09:28.707Z,63.67
2022-11-15T01:24:29.210Z,63.70
2022-11-15T01:39:29.373Z,63.70
2022-11-15T01:54:29.967Z,63.76
2022-11-15T02:09:30.618Z,64.49
2022-11-15T02:24:33.020Z,64.62
2022-11-15T02:39:34.651Z,64.20
2022-11-15T02:54:36.456Z,64.54
2022-11-15T03:09:37.088Z,64.68
2022-11-15T03:24:39.970Z,65.38
2022-11-15T03:39:41.056Z,64.89
2022-11-15T03:54:41.712Z,64.89
2022-11-15T04:09:42.331Z,65.44
2022-11-15T04:24:43.099Z,65.83
2022-11-15T04:39:44.682Z,65.83
2022-11-15T04:54:45.750Z,64.68
2022-11-15T05:09:46.449Z,65.94
2022-11-15T05:24:46.524Z,65.20
2022-11-15T05:39:47.329Z,65.91
2022-11-15T05:54:47.800Z,64.92
2022-11-15T06:09:48.443Z,65.52
2022-11-15T06:24:49.180Z,65.94
2022-11-15T06:39:50.352Z,66.46
2022-11-15T06:54:51.279Z,66.25
2022-11-15T07:09:52.405Z,67.79
2022-11-15T07:24:55.347Z,69.61
2022-11-15T07:39:56.476Z,75.88
2022-11-15T07:54:57.542Z,77.86
2022-11-15T08:09:58.613Z,78.61
2022-11-15T08:24:59.837Z,78.32
2022-11-15T08:40:00.929Z,71.55
2022-11-15T08:55:01.519Z,53.85
2022-11-15T09:10:03.125Z,99.99
2022-11-15T09:25:08.496Z,99.99
2022-11-15T09:40:09.798Z,99.99
2022-11-15T09:55:09.832Z,92.86
2022-11-15T10:10:09.976Z,88.30
2022-11-15T10:25:10.167Z,83.91
2022-11-15T10:40:10.430Z,81.37
2022-11-15T10:55:10.686Z,80.62
2022-11-15T11:10:36.274Z,78.11
2022-11-15T11:25:16.153Z,76.72
2022-11-15T11:40:17.513Z,77.39
2022-11-15T11:55:17.872Z,81.71
2022-11-15T12:10:19.455Z,85.78
2022-11-15T12:25:19.776Z,87.95
2022-11-15T12:40:19.872Z,86.82
2022-11-15T12:55:19.915Z,83.59
2022-11-15T13:10:26.611Z,83.17
2022-11-15T13:25:26.883Z,87.81
2022-11-15T13:40:26.960Z,90.78
2022-11-15T13:55:27.082Z,94.18
2022-11-15T14:10:27.668Z,97.53
2022-11-15T14:25:30.036Z,99.60
2022-11-15T14:40:31.426Z,99.99
2022-11-15T14:55:32.044Z,99.99
2022-11-15T15:10:40.087Z,99.99
2022-11-15T15:25:40.033Z,99.99
2022-11-15T15:40:40.913Z,99.99
2022-11-15T15:55:43.345Z,94.65
2022-11-15T16:10:42.958Z,93.20
2022-11-15T16:25:43.294Z,87.63
2022-11-15T16:40:43.435Z,86.82
2022-11-15T16:55:44.868Z,81.30
2022-11-15T17:10:44.949Z,80.24
2022-11-15T17:25:45.059Z,80.73
2022-11-15T17:40:45.177Z,76.43
2022-11-15T17:55:45.336Z,71.33
2022-11-15T18:10:45.863Z,68.98
2022-11-15T18:25:45.998Z,62.39
2022-11-15T18:40:46.590Z,59.26
2022-11-15T18:55:46.731Z,57.89
2022-11-15T19:10:47.330Z,57.79
2022-11-15T19:25:48.718Z,57.65
2022-11-15T19:40:50.049Z,57.04
2022-11-15T19:55:51.550Z,56.83
2022-11-15T20:10:52.107Z,57.32
2022-11-15T20:25:53.508Z,57.01
2022-11-15T20:40:59.982Z,55.85
2022-11-15T20:56:01.316Z,55.98
2022-11-15T21:11:01.614Z,56.08
2022-11-15T21:26:02.264Z,55.77
2022-11-15T21:41:02.845Z,55.66
2022-11-15T21:56:02.468Z,55.46
2022-11-15T22:11:02.543Z,55.28
2022-11-15T22:26:03.145Z,54.45
2022-11-15T22:41:05.545Z,54.27
2022-11-15T22:56:07.297Z,55.49
2022-11-15T23:11:08.253Z,56.24
2022-11-15T23:26:10.604Z,55.69
2022-11-15T23:41:10.244Z,55.28
2022-11-15T23:56:10.873Z,55.59
